首页
METAR-TAF:

METAR-TAF

机场 :

那拉提瓦, 泰国

纬度: 6-31-12N, 经度: 101-44-36E, 海拔: 5米

当前天气观测

该预报发布于2小时和16分钟前的15:00 UTC
风速5节,风向南转西南,在西转西南之间变化
温度 24°C
湿度 100%
气压 1012 hPa
能见度10公里或以上
少量云层高于500英尺
散云层高于1700英尺
多云层高于4400英尺

METAR: VTSC 121500Z 21005KT 170V240 9999 FEW005 SCT017 BKN044 24/24 Q1012 NOSIG

时间: 00:16 (17:16 UTC)

预报

该预报发布于6小时和16分钟前的11:00 UTC
预报有效从12日的 12点(UTC)到 13日的 12点(UTC)
风速3节,风向南转西南
能见度10公里或以上
散云层高于2000英尺
多云层高于10000英尺
短暂存在
从 12日的 12点(UTC)到 12日的 18点(UTC)
能見度: 5000
散云层高于1500英尺
多云层高于10000英尺
短暂存在
从 13日的 00点(UTC)到 13日的 03点(UTC)
能見度: 5000
散云层高于1500英尺
多云层高于10000英尺
成为
从 13日的 03点(UTC)到 13日的 05点(UTC)
风速10节,风向
短暂存在
从 13日的 06点(UTC)到 13日的 12点(UTC)
能見度: 5000
散云层高于1500英尺
多云层高于10000英尺

TAF: VTSC 121100Z 1212/1312 20003KT 9999 SCT020 BKN100 TEMPO 1212/1218 5000 RA SCT015 BKN100 TEMPO 1300/1303 5000 RA SCT015 BKN100 BECMG 1303/1305 09010KT TEMPO 1306/1312 5000 RA SCT015 BKN100

超过4000个机场的气象观测和天气预报(METAR&TAF报告)。

可查询的气象台以黄色和红色小点在地图上表示。

将鼠标移到小点上方,可查看气象台名称。

然后点击查看天气观测和预报。

如需切换地图:点击带黑十字的绿色按钮放大地图;点击带横线的绿色按钮缩小地图;或者点击绿色箭头查看邻近地区的地图。


METAR-TAF: